Time;durP1;ratioP1;P1;durP2;ratioP2;P2;SDS_P1;SDS_P2;PMS_P1;PMS_P2;Temp;Humidity;BMP_temperature;BMP_pressure;BME280_temperature;BME280_humidity;BME280_pressure;Samples;Min_cycle;Max_cycle;Signal;HPM_P1;HPM_P2
2021/12/14 17:37:16;;;;;;;;;69.75;52.50;;;;;7.37;82.78;102622.00;5105636;27;45576;-66
2021/12/14 17:39:45;;;;;;;;;65.00;50.25;;;;;7.58;82.30;102620.34;5099819;27;45512;-64
2021/12/14 17:42:15;;;;;;;;;65.75;49.00;;;;;7.68;81.71;102603.38;5092482;27;45423;-66
2021/12/14 17:44:47;;;;;;;;;64.00;46.00;;;;;7.98;81.07;102631.66;5095430;27;45349;-66
2021/12/14 17:47:13;;;;;;;;;61.75;48.00;;;;;8.15;80.44;102625.41;5090838;27;46211;-65
2021/12/14 17:49:51;;;;;;;;;61.75;48.00;;;;;8.31;79.90;102626.06;5090206;27;45387;-66
2021/12/14 17:52:39;;;;;;;;;56.50;43.25;;;;;8.46;79.16;102627.59;5090087;27;45994;-71
2021/12/14 17:55:10;;;;;;;;;55.75;43.50;;;;;8.51;79.42;102619.97;5092436;27;45625;-70
2021/12/14 17:57:39;;;;;;;;;57.25;45.75;;;;;8.61;78.67;102624.75;5092163;27;46610;-68
2021/12/14 18:00:10;;;;;;;;;53.50;43.50;;;;;8.78;78.67;102643.72;5092822;27;45432;-67
2021/12/14 18:02:42;;;;;;;;;57.25;44.25;;;;;8.90;78.17;102643.31;5090249;27;45570;-69
2021/12/14 18:05:17;;;;;;;;;59.00;43.50;;;;;9.02;77.36;102650.72;5090701;27;45370;-70
2021/12/14 18:07:56;;;;;;;;;60.75;45.00;;;;;9.05;77.56;102650.84;5089627;27;45952;-67
2021/12/14 18:10:52;;;;;;;;;53.50;41.75;;;;;9.09;77.05;102647.53;5090076;27;45370;-64
2021/12/14 18:13:35;;;;;;;;;56.75;43.00;;;;;9.05;76.49;102635.16;5090078;27;45509;-65
2021/12/14 18:16:06;;;;;;;;;55.25;43.25;;;;;9.09;76.62;102637.94;5094186;27;45627;-65
2021/12/14 18:21:25;;;;;;;;;56.00;44.00;;;;;9.10;76.06;102644.94;5092943;27;45456;-67
2021/12/14 18:23:56;;;;;;;;;63.25;45.50;;;;;9.12;75.16;102647.63;5089590;27;45425;-69
2021/12/14 18:26:24;;;;;;;;;56.50;41.00;;;;;8.99;76.25;102637.53;5088302;27;45649;-66
2021/12/14 18:28:53;;;;;;;;;59.50;44.50;;;;;9.06;76.25;102655.22;5089068;27;45799;-65
2021/12/14 18:31:19;;;;;;;;;52.00;40.50;;;;;8.96;76.07;102637.41;5089341;27;45491;-65
2021/12/14 18:34:12;;;;;;;;;54.50;41.00;;;;;9.00;76.07;102648.06;5075670;27;46052;-69
2021/12/14 18:36:53;;;;;;;;;54.75;40.75;;;;;9.07;76.05;102667.47;5104810;27;45492;-72
2021/12/14 18:39:31;;;;;;;;;54.00;42.50;;;;;9.07;75.96;102652.69;5111837;27;45908;-68
2021/12/14 18:42:06;;;;;;;;;54.75;42.25;;;;;9.10;76.06;102650.19;5112773;27;45433;-68
2021/12/14 18:44:32;;;;;;;;;51.00;41.00;;;;;9.19;75.94;102654.00;5109712;27;45461;-69
2021/12/14 18:49:45;;;;;;;;;48.25;37.25;;;;;9.18;75.52;102645.22;5087749;27;45911;-72
2021/12/14 18:52:34;;;;;;;;;54.50;39.75;;;;;9.21;75.41;102642.75;5098734;27;45349;-69
2021/12/14 18:55:13;;;;;;;;;48.75;37.75;;;;;9.31;75.23;102662.31;5101859;27;45310;-68
2021/12/14 18:57:39;;;;;;;;;50.75;41.00;;;;;9.36;75.25;102654.63;5097703;27;45358;-67
2021/12/14 19:00:19;;;;;;;;;51.00;40.75;;;;;9.39;75.19;102658.25;5095780;27;45522;-66
2021/12/14 19:02:45;;;;;;;;;48.25;38.25;;;;;9.38;75.08;102659.09;5077285;27;45852;-66
2021/12/14 19:05:15;;;;;;;;;54.00;40.75;;;;;9.38;74.54;102656.47;5096518;27;45688;-67
2021/12/14 19:07:45;;;;;;;;;49.00;39.50;;;;;9.20;75.01;102633.13;5077379;27;45525;-67
2021/12/14 19:10:17;;;;;;;;;54.25;43.00;;;;;9.15;74.46;102637.28;5099737;27;46111;-65
2021/12/14 19:12:48;;;;;;;;;57.25;40.75;;;;;9.10;74.57;102644.94;5100468;27;45504;-65
2021/12/14 19:15:19;;;;;;;;;54.00;41.25;;;;;9.11;74.58;102664.13;5082371;27;45554;-65
2021/12/14 19:17:49;;;;;;;;;48.75;38.50;;;;;8.93;75.32;102629.47;5098648;27;45400;-67
2021/12/14 19:20:38;;;;;;;;;51.25;39.75;;;;;9.11;75.23;102658.91;5095633;27;46539;-64
2021/12/14 19:23:06;;;;;;;;;45.75;38.25;;;;;9.09;75.05;102657.97;5095677;27;45747;-64
2021/12/14 19:25:38;;;;;;;;;53.25;39.00;;;;;9.01;75.02;102659.38;5095230;27;45648;-68
2021/12/14 19:28:11;;;;;;;;;52.75;39.25;;;;;9.03;75.26;102673.41;5095580;27;45340;-65
2021/12/14 19:30:39;;;;;;;;;56.50;43.00;;;;;8.93;74.94;102674.78;5093627;27;48298;-68
2021/12/14 19:33:05;;;;;;;;;52.00;41.25;;;;;8.93;75.38;102679.13;5098849;27;45341;-65
2021/12/14 19:35:36;;;;;;;;;54.50;43.25;;;;;8.94;75.31;102676.53;5095470;27;45366;-67
2021/12/14 19:38:17;;;;;;;;;54.00;41.75;;;;;8.90;75.12;102672.03;5096169;27;45505;-67
2021/12/14 19:40:48;;;;;;;;;51.75;42.25;;;;;8.86;75.66;102657.06;5095051;27;46382;-71
2021/12/14 19:43:25;;;;;;;;;50.50;41.25;;;;;8.93;75.18;102676.50;5095574;27;45381;-72
2021/12/14 19:45:54;;;;;;;;;56.25;41.75;;;;;8.88;75.62;102666.75;5094978;27;45448;-71
2021/12/14 19:48:31;;;;;;;;;46.00;38.75;;;;;8.97;75.30;102681.91;5096016;27;45402;-70
2021/12/14 19:51:04;;;;;;;;;54.75;42.00;;;;;8.98;75.41;102672.34;5076891;27;45712;-71
2021/12/14 19:53:39;;;;;;;;;54.00;40.00;;;;;8.86;75.49;102655.34;5088525;27;45487;-66
2021/12/14 19:56:09;;;;;;;;;54.25;42.75;;;;;8.95;75.10;102665.28;5078909;27;45532;-69
2021/12/14 19:58:39;;;;;;;;;50.25;39.00;;;;;9.10;75.35;102683.28;5097210;27;45473;-71
2021/12/14 20:01:10;;;;;;;;;53.25;40.75;;;;;8.98;75.12;102657.53;5098338;27;46317;-69
2021/12/14 20:03:48;;;;;;;;;57.00;42.50;;;;;9.15;74.77;102686.06;5092931;27;45427;-67
2021/12/14 20:06:32;;;;;;;;;48.75;40.00;;;;;9.02;75.29;102659.47;5087923;27;45453;-66
2021/12/14 20:09:02;;;;;;;;;57.50;42.00;;;;;9.16;75.47;102685.22;5095730;27;45303;-67
2021/12/14 20:11:41;;;;;;;;;56.75;44.75;;;;;9.10;74.76;102670.22;5094921;27;46796;-68
2021/12/14 20:14:20;;;;;;;;;48.75;35.50;;;;;9.18;74.85;102687.06;5094412;27;45426;-69
2021/12/14 20:16:48;;;;;;;;;56.50;42.00;;;;;9.18;74.82;102676.59;5101980;27;46050;-67
2021/12/14 20:19:16;;;;;;;;;57.00;42.75;;;;;9.03;74.85;102655.13;5081057;27;45469;-69
2021/12/14 20:21:46;;;;;;;;;53.50;43.00;;;;;9.20;74.97;102689.75;5080781;27;45517;-64
2021/12/14 20:24:25;;;;;;;;;50.50;39.00;;;;;9.23;75.17;102682.03;5094862;27;45326;-66
2021/12/14 20:27:06;;;;;;;;;53.25;39.75;;;;;9.14;74.77;102677.34;5076250;27;45468;-66
2021/12/14 20:29:55;;;;;;;;;50.00;39.00;;;;;9.15;74.65;102681.72;5094740;27;45651;-64
2021/12/14 20:32:30;;;;;;;;;55.00;43.00;;;;;9.08;74.88;102684.94;5086917;27;45383;-64
2021/12/14 20:35:11;;;;;;;;;61.00;45.25;;;;;8.94;75.16;102675.66;5081843;27;45377;-65
2021/12/14 20:37:37;;;;;;;;;58.00;44.75;;;;;9.04;75.25;102688.25;5082438;27;45801;-67
2021/12/14 20:40:09;;;;;;;;;59.00;44.00;;;;;9.07;75.37;102694.50;5094004;27;45417;-66
2021/12/14 20:42:57;;;;;;;;;51.00;40.50;;;;;9.04;75.13;102683.94;5096864;27;46943;-65
2021/12/14 20:45:30;;;;;;;;;60.25;43.50;;;;;9.07;75.26;102697.13;5086900;27;45718;-64
2021/12/14 20:48:05;;;;;;;;;57.75;43.00;;;;;8.95;75.23;102674.84;5097385;27;45473;-67
2021/12/14 20:50:35;;;;;;;;;52.75;40.00;;;;;9.02;74.90;102696.06;5098204;27;45460;-65
2021/12/14 20:53:11;;;;;;;;;54.75;45.00;;;;;8.98;75.41;102695.88;5092764;27;46293;-66
2021/12/14 20:55:50;;;;;;;;;50.50;40.75;;;;;8.67;75.14;102642.38;5094145;27;45991;-67
2021/12/14 20:58:28;;;;;;;;;47.25;37.00;;;;;9.06;75.38;102697.03;5093666;27;45460;-64
2021/12/14 21:01:01;;;;;;;;;53.75;43.25;;;;;9.08;75.04;102693.66;5093881;27;45607;-67
2021/12/14 21:03:40;;;;;;;;;56.00;43.75;;;;;9.08;75.25;102701.50;5094833;27;46303;-65
2021/12/14 21:06:17;;;;;;;;;57.50;42.00;;;;;8.98;74.99;102683.69;5097414;27;45543;-66
2021/12/14 21:08:49;;;;;;;;;56.75;42.25;;;;;8.99;74.63;102685.44;5098621;27;45479;-66
2021/12/14 21:11:15;;;;;;;;;53.75;41.25;;;;;9.00;75.34;102702.94;5093407;27;45608;-63
2021/12/14 21:13:43;;;;;;;;;55.00;40.00;;;;;9.07;75.18;102701.47;5093272;27;45546;-67
2021/12/14 21:16:40;;;;;;;;;51.00;38.50;;;;;9.08;74.94;102696.28;5094733;27;45738;-64
2021/12/14 21:19:28;;;;;;;;;52.25;40.25;;;;;9.02;74.79;102689.94;5092848;27;45706;-66
2021/12/14 21:22:16;;;;;;;;;54.00;41.75;;;;;9.00;75.21;102694.22;5093981;27;45780;-66
2021/12/14 21:24:53;;;;;;;;;55.75;43.00;;;;;8.74;74.79;102647.00;5082081;27;47182;-65
2021/12/14 21:27:30;;;;;;;;;61.00;47.25;;;;;8.94;75.11;102683.50;5094375;27;45465;-64
2021/12/14 21:30:12;;;;;;;;;53.75;44.00;;;;;8.97;75.47;102696.69;5094226;27;45389;-64
2021/12/14 21:32:42;;;;;;;;;58.25;44.75;;;;;8.96;75.10;102700.13;5098116;27;45298;-64
2021/12/14 21:35:27;;;;;;;;;56.75;43.50;;;;;8.84;75.41;102679.63;5098468;27;45459;-64
2021/12/14 21:38:00;;;;;;;;;57.25;44.25;;;;;8.85;75.45;102697.06;5098658;27;45360;-66
2021/12/14 21:40:44;;;;;;;;;58.00;43.25;;;;;8.94;75.63;102699.19;5098300;27;45284;-66
2021/12/14 21:43:47;;;;;;;;;58.75;43.50;;;;;8.77;75.50;102688.94;5096832;27;45461;-66
2021/12/14 21:46:41;;;;;;;;;55.75;43.00;;;;;8.91;75.43;102713.91;5092595;27;45781;-67
2021/12/14 21:49:19;;;;;;;;;58.00;45.50;;;;;8.91;75.63;102713.00;5093579;27;45496;-63
2021/12/14 21:51:58;;;;;;;;;54.75;43.50;;;;;8.87;75.93;102704.19;5094938;27;45477;-67
2021/12/14 21:54:27;;;;;;;;;52.25;42.50;;;;;8.89;75.83;102699.88;5097975;27;45361;-67
2021/12/14 21:56:55;;;;;;;;;58.00;45.00;;;;;8.71;75.46;102678.25;5093422;27;46210;-65
2021/12/14 21:59:21;;;;;;;;;55.25;43.00;;;;;8.87;75.73;102709.41;5092767;27;45973;-65
2021/12/14 22:01:50;;;;;;;;;51.25;41.00;;;;;8.45;76.20;102651.94;5096897;27;45421;-64
2021/12/14 22:04:18;;;;;;;;;55.00;42.75;;;;;8.75;76.00;102687.09;5097759;27;45571;-64
2021/12/14 22:06:44;;;;;;;;;57.00;44.25;;;;;8.75;76.03;102697.53;5094549;27;46324;-65
2021/12/14 22:09:10;;;;;;;;;54.25;41.50;;;;;8.74;76.19;102699.28;5091740;27;45637;-63
2021/12/14 22:11:41;;;;;;;;;52.00;41.75;;;;;8.80;75.82;102702.13;5096481;27;45361;-69
2021/12/14 22:14:10;;;;;;;;;57.75;43.25;;;;;8.79;75.87;102700.34;5097213;27;45459;-65
2021/12/14 22:16:40;;;;;;;;;51.00;40.50;;;;;8.66;76.24;102685.91;5096866;27;45503;-64
2021/12/14 22:19:10;;;;;;;;;51.25;41.25;;;;;8.57;76.23;102693.34;5093024;27;45501;-65
2021/12/14 22:21:36;;;;;;;;;51.50;40.00;;;;;8.67;76.59;102695.50;5074946;27;45948;-66
2021/12/14 22:24:06;;;;;;;;;54.75;41.50;;;;;8.61;76.65;102687.44;5094896;27;45490;-67
2021/12/14 22:26:32;;;;;;;;;54.25;42.75;;;;;8.41;76.82;102641.31;5087027;27;45410;-66
2021/12/14 22:28:58;;;;;;;;;55.50;42.50;;;;;8.44;76.87;102654.50;5082182;27;45368;-67
2021/12/14 22:31:24;;;;;;;;;51.75;41.75;;;;;8.72;76.58;102703.53;5099391;27;45473;-66
2021/12/14 22:33:51;;;;;;;;;51.00;40.00;;;;;8.64;76.51;102681.44;5097127;27;45306;-68
2021/12/14 22:36:18;;;;;;;;;58.00;43.25;;;;;8.47;76.39;102659.81;5096032;27;45513;-68
2021/12/14 22:38:52;;;;;;;;;52.50;42.75;;;;;8.53;76.38;102673.16;5096258;27;45417;-66
2021/12/14 22:44:06;;;;;;;;;50.75;40.25;;;;;8.70;76.37;102707.81;5095888;27;45734;-67
2021/12/14 22:46:36;;;;;;;;;51.25;40.75;;;;;8.65;76.72;102689.31;5096060;27;45981;-66
2021/12/14 22:49:11;;;;;;;;;52.50;40.25;;;;;8.77;76.61;102703.72;5095037;27;45710;-66
2021/12/14 22:51:45;;;;;;;;;54.75;39.75;;;;;8.80;76.67;102707.34;5095431;27;45423;-66
2021/12/14 22:54:11;;;;;;;;;51.75;39.00;;;;;8.55;76.29;102670.63;5097375;27;45536;-74
2021/12/14 22:56:38;;;;;;;;;49.75;40.25;;;;;8.78;76.45;102718.56;5099242;27;45508;-66
2021/12/14 22:59:04;;;;;;;;;50.50;40.00;;;;;8.69;76.54;102706.03;5100413;27;45362;-65
2021/12/14 23:01:41;;;;;;;;;51.75;40.25;;;;;8.41;76.49;102643.94;5095998;27;45481;-65
2021/12/14 23:04:11;;;;;;;;;54.75;42.50;;;;;8.73;76.48;102717.47;5095913;27;45458;-66
2021/12/14 23:06:39;;;;;;;;;53.00;41.25;;;;;8.61;76.64;102691.75;5094824;27;46227;-70
2021/12/14 23:09:08;;;;;;;;;50.00;39.75;;;;;8.62;76.59;102694.44;5095966;27;45440;-71
2021/12/14 23:11:34;;;;;;;;;55.50;41.25;;;;;8.60;76.82;102679.53;5095640;27;45325;-72
2021/12/14 23:14:22;;;;;;;;;55.25;42.25;;;;;8.73;76.30;102700.06;5101524;27;45781;-66
2021/12/14 23:16:56;;;;;;;;;57.00;43.00;;;;;8.68;76.72;102712.97;5100366;27;45522;-65
2021/12/14 23:19:53;;;;;;;;;58.50;42.75;;;;;8.68;76.74;102707.75;5096774;27;46150;-65
2021/12/14 23:22:24;;;;;;;;;53.00;39.00;;;;;8.62;76.78;102697.03;5098622;27;45520;-67
2021/12/14 23:24:58;;;;;;;;;52.00;40.25;;;;;8.71;76.75;102714.84;5088204;27;45581;-66
2021/12/14 23:27:24;;;;;;;;;56.25;42.50;;;;;8.69;76.95;102714.75;5098433;27;46228;-65
2021/12/14 23:29:50;;;;;;;;;51.75;40.50;;;;;8.70;76.91;102715.63;5089855;27;45278;-65
2021/12/14 23:32:16;;;;;;;;;50.25;38.00;;;;;8.69;76.79;102704.31;5093223;27;45488;-71
2021/12/14 23:34:42;;;;;;;;;56.75;40.75;;;;;8.71;76.72;102717.44;5097633;27;45989;-69
2021/12/14 23:37:08;;;;;;;;;51.50;39.00;;;;;8.75;76.79;102715.81;5095642;27;46135;-71
2021/12/14 23:39:38;;;;;;;;;50.75;41.75;;;;;8.58;76.66;102696.84;5095345;27;45518;-70
2021/12/14 23:42:06;;;;;;;;;52.25;41.25;;;;;8.75;76.83;102718.44;5094185;27;45443;-68
2021/12/14 23:44:33;;;;;;;;;55.50;43.00;;;;;8.78;76.43;102724.69;5096408;27;45341;-69
2021/12/14 23:49:27;;;;;;;;;58.25;45.00;;;;;8.79;76.33;102717.75;5095309;27;45306;-72
2021/12/14 23:51:54;;;;;;;;;56.25;42.75;;;;;8.74;76.58;102719.28;5094745;27;45623;-72
2021/12/14 23:54:21;;;;;;;;;55.25;42.00;;;;;8.67;76.62;102713.78;5095241;27;45428;-68
2021/12/14 23:56:48;;;;;;;;;59.00;44.00;;;;;8.67;76.80;102719.03;5094825;27;46067;-72
2021/12/14 23:59:17;;;;;;;;;59.25;43.75;;;;;8.62;76.40;102717.06;5095819;27;45444;-73
